Time;durP1;ratioP1;P1;durP2;ratioP2;P2;SDS_P1;SDS_P2;PMS_P1;PMS_P2;Temp;Humidity;BMP_temperature;BMP_pressure;BME280_temperature;BME280_humidity;BME280_pressure;Samples;Min_cycle;Max_cycle;Signal;HPM_P1;HPM_P2
2022/06/13 00:00:07;;;;;;;4.30;1.67;;;;;;;14.58;54.34;100856.53;5052690;28;20473;-44
2022/06/13 00:02:34;;;;;;;7.22;1.17;;;;;;;14.57;54.63;100860.03;5044634;28;20044;-46
2022/06/13 00:05:03;;;;;;;3.65;1.50;;;;;;;14.58;55.45;100861.75;5050153;28;20521;-44
2022/06/13 00:07:30;;;;;;;6.20;1.58;;;;;;;14.59;54.99;100853.03;5056247;28;20044;-42
2022/06/13 00:09:58;;;;;;;3.92;1.35;;;;;;;14.59;55.41;100853.03;5042237;28;20052;-44
2022/06/13 00:12:25;;;;;;;6.60;1.48;;;;;;;14.59;55.37;100863.47;5046640;28;20394;-46
2022/06/13 00:14:51;;;;;;;5.82;1.58;;;;;;;14.58;55.66;100860.88;5042730;28;20053;-44
2022/06/13 00:17:18;;;;;;;5.82;1.42;;;;;;;14.56;54.84;100866.09;5047373;28;20060;-46
2022/06/13 00:19:45;;;;;;;5.30;1.33;;;;;;;14.53;54.48;100864.38;5045127;28;20045;-45
2022/06/13 00:22:11;;;;;;;4.57;1.13;;;;;;;14.49;55.27;100861.81;5047918;28;20055;-48
2022/06/13 00:24:39;;;;;;;4.95;1.20;;;;;;;14.45;54.83;100860.94;5049591;28;20036;-45
2022/06/13 00:27:05;;;;;;;6.45;1.90;;;;;;;14.39;55.50;100869.66;5048272;28;20130;-43
2022/06/13 00:29:32;;;;;;;5.95;1.23;;;;;;;14.34;55.05;100867.97;5052248;28;20044;-46
2022/06/13 00:31:59;;;;;;;6.47;1.17;;;;;;;14.29;55.68;100870.63;5047259;28;20483;-42
2022/06/13 00:34:25;;;;;;;6.72;1.83;;;;;;;14.22;55.12;100869.75;5045630;28;20469;-45
2022/06/13 00:36:52;;;;;;;8.05;1.65;;;;;;;14.16;54.95;100864.59;5044308;28;20052;-41
2022/06/13 00:39:19;;;;;;;6.45;1.00;;;;;;;14.09;55.85;100863.72;5047727;28;20055;-43
2022/06/13 00:41:46;;;;;;;5.63;1.38;;;;;;;14.04;56.19;100862.00;5045664;28;20427;-39
2022/06/13 00:44:24;;;;;;;6.57;1.27;;;;;;;13.94;56.05;100859.47;5043959;28;20057;-40
2022/06/13 00:46:51;;;;;;;4.82;1.23;;;;;;;13.93;54.98;100869.88;5050424;28;20044;-41
2022/06/13 00:49:39;;;;;;;4.85;1.45;;;;;;;13.80;55.65;100867.31;5048677;28;20114;-40
2022/06/13 00:52:19;;;;;;;7.43;1.98;;;;;;;13.79;56.01;100864.72;5042290;28;20451;-42
2022/06/13 00:54:49;;;;;;;9.18;1.85;;;;;;;13.80;56.23;100862.13;5049316;28;20047;-43
2022/06/13 00:57:20;;;;;;;7.53;2.45;;;;;;;13.80;56.71;100856.91;5044933;28;20113;-40
2022/06/13 00:59:49;;;;;;;3.78;1.48;;;;;;;13.80;56.37;100864.72;5047917;28;20049;-39
2022/06/13 01:02:16;;;;;;;7.55;2.50;;;;;;;13.80;57.47;100861.22;5042721;28;20072;-43
2022/06/13 01:04:43;;;;;;;6.13;1.85;;;;;;;13.82;57.11;100862.97;5048063;28;20071;-44
2022/06/13 01:07:10;;;;;;;5.28;1.95;;;;;;;13.84;56.84;100858.63;5052687;28;20052;-42
2022/06/13 01:12:28;;;;;;;6.72;1.92;;;;;;;13.85;57.26;100860.34;5045317;28;20065;-45
2022/06/13 01:32:33;;;;;;;5.70;2.33;;;;;;;13.65;57.77;100867.34;5024669;28;20419;-41
2022/06/13 01:38:17;;;;;;;5.03;1.35;;;;;;;13.58;57.70;100877.78;5056394;27;20759;-42
2022/06/13 01:44:13;;;;;;;5.90;1.85;;;;;;;13.57;57.01;100873.44;5021897;28;20404;-41
2022/06/13 01:49:57;;;;;;;4.70;2.58;;;;;;;13.39;57.50;100873.44;5030051;28;20395;-41
2022/06/13 01:55:45;;;;;;;6.00;1.52;;;;;;;13.35;57.40;100880.38;5049711;28;20400;-41
2022/06/13 02:00:58;;;;;;;3.63;1.65;;;;;;;13.34;57.93;100882.13;5057296;27;20403;-39
2022/06/13 02:03:30;;;;;;;3.03;1.30;;;;;;;13.35;57.79;100891.66;5056606;28;20064;-43
2022/06/13 02:06:12;;;;;;;8.43;2.05;;;;;;;13.35;58.38;100894.25;5041838;28;20605;-44
2022/06/13 02:08:45;;;;;;;4.78;1.45;;;;;;;13.41;58.38;100889.94;5041177;28;20053;-43
2022/06/13 02:14:22;;;;;;;4.70;1.65;;;;;;;13.39;57.78;100876.03;5053016;27;20397;-44
2022/06/13 02:16:57;;;;;;;3.65;1.15;;;;;;;13.42;58.66;100896.84;5033204;28;20104;-42
2022/06/13 02:19:55;;;;;;;7.55;1.45;;;;;;;13.37;58.75;100895.13;5000999;28;20053;-40
2022/06/13 02:25:10;;;;;;;4.78;1.70;;;;;;;13.44;58.08;100884.72;5050385;28;20399;-45
2022/06/13 02:27:38;;;;;;;8.18;1.50;;;;;;;13.43;58.35;100893.38;5023821;28;20046;-42
2022/06/13 02:30:11;;;;;;;6.63;1.42;;;;;;;13.42;58.88;100895.13;5025227;28;20049;-44
2022/06/13 02:32:46;;;;;;;5.50;1.27;;;;;;;13.41;58.12;100895.13;5021814;28;20575;-41
2022/06/13 02:35:20;;;;;;;7.28;1.63;;;;;;;13.39;58.67;100884.72;5018295;28;20050;-43
2022/06/13 02:38:01;;;;;;;5.32;1.92;;;;;;;13.30;59.03;100885.59;5020053;28;20379;-43
2022/06/13 02:40:35;;;;;;;4.50;1.65;;;;;;;13.27;58.39;100884.75;5019807;28;20474;-42
2022/06/13 02:43:09;;;;;;;5.93;1.83;;;;;;;13.22;58.53;100895.13;5022056;28;20068;-41
2022/06/13 02:48:39;;;;;;;5.45;2.35;;;;;;;13.07;59.24;100890.81;5021210;27;20410;-45
2022/06/13 02:51:39;;;;;;;9.90;2.95;;;;;;;12.95;60.13;100912.47;5003835;28;20050;-45
2022/06/13 02:59:33;;;;;;;5.30;1.67;;;;;;;13.02;60.64;100902.91;5035645;27;20405;-43
2022/06/13 03:02:01;;;;;;;5.03;1.02;;;;;;;12.91;60.96;100903.78;5018307;28;20107;-48
2022/06/13 03:04:36;;;;;;;5.60;1.10;;;;;;;12.82;60.20;100907.25;5023046;28;20049;-44
2022/06/13 03:07:26;;;;;;;5.40;1.15;;;;;;;12.70;60.83;100908.06;5016487;28;20065;-42
2022/06/13 03:10:02;;;;;;;3.70;1.15;;;;;;;12.69;61.30;100902.88;5016168;28;20103;-43
2022/06/13 03:15:49;;;;;;;2.53;0.90;;;;;;;12.48;61.40;100891.56;5046764;27;20397;-40
2022/06/13 03:23:38;;;;;;;3.92;0.80;;;;;;;12.39;62.08;100902.78;5027312;28;20409;-39
2022/06/13 03:26:13;;;;;;;3.38;1.02;;;;;;;12.37;61.82;100903.66;5013812;28;20049;-43
2022/06/13 03:28:47;;;;;;;5.43;0.88;;;;;;;12.37;61.09;100908.84;5007875;28;20525;-41
2022/06/13 03:31:24;;;;;;;3.40;0.80;;;;;;;12.33;61.99;100911.44;5003133;28;20050;-42
2022/06/13 03:33:57;;;;;;;1.85;0.73;;;;;;;12.33;61.59;100908.81;5016601;28;20056;-40
2022/06/13 03:39:14;;;;;;;3.30;0.65;;;;;;;12.29;60.78;100912.28;4985104;28;20429;-40
2022/06/13 03:41:47;;;;;;;2.75;0.75;;;;;;;12.28;61.80;100920.94;4979201;28;20050;-41
2022/06/13 03:44:23;;;;;;;3.00;1.10;;;;;;;12.27;60.87;100921.81;5000091;28;20057;-41
2022/06/13 03:46:56;;;;;;;4.60;0.73;;;;;;;12.25;61.22;100920.91;4989292;28;20487;-40
2022/06/13 03:49:37;;;;;;;4.35;0.75;;;;;;;12.23;61.00;100919.19;4987516;28;20054;-40
2022/06/13 03:52:09;;;;;;;2.97;0.95;;;;;;;12.23;61.00;100932.16;4987625;28;20116;-42
2022/06/13 03:54:57;;;;;;;2.65;0.93;;;;;;;12.16;61.60;100920.91;4986089;28;20062;-44
2022/06/13 03:57:31;;;;;;;8.65;1.02;;;;;;;12.18;62.01;100921.75;4993916;28;20113;-40
2022/06/13 04:00:05;;;;;;;4.32;1.05;;;;;;;12.15;61.32;100909.63;4989129;28;20050;-43
2022/06/13 04:02:34;;;;;;;1.92;1.08;;;;;;;12.15;62.36;100912.22;4989584;28;20443;-41
2022/06/13 04:05:01;;;;;;;4.35;0.77;;;;;;;12.13;61.52;100921.72;4998027;28;20050;-40
2022/06/13 04:07:32;;;;;;;1.92;0.70;;;;;;;12.15;61.42;100924.34;4989063;28;20050;-39
2022/06/13 04:10:12;;;;;;;2.50;1.13;;;;;;;12.13;61.59;100936.47;4985099;28;20466;-40
2022/06/13 04:13:18;;;;;;;2.90;0.65;;;;;;;12.14;61.73;100945.97;5006882;28;20105;-43
2022/06/13 04:15:58;;;;;;;3.50;0.45;;;;;;;12.23;62.27;100942.56;4987272;28;20758;-45
2022/06/13 04:26:32;;;;;;;3.35;1.20;;;;;;;12.45;62.14;100933.13;5035295;27;20416;-40
2022/06/13 04:29:26;;;;;;;7.25;1.40;;;;;;;12.43;63.18;100927.06;5022334;28;20508;-42
2022/06/13 04:31:58;;;;;;;4.53;2.22;;;;;;;12.52;62.37;100924.50;5022282;28;20100;-41
2022/06/13 04:34:30;;;;;;;2.55;2.08;;;;;;;12.57;62.10;100933.16;5019531;28;20042;-41
2022/06/13 04:36:58;;;;;;;3.83;1.25;;;;;;;12.64;62.58;100933.19;5020359;28;21124;-41
2022/06/13 04:39:30;;;;;;;4.97;2.50;;;;;;;12.69;62.10;100947.06;5021681;28;20053;-41
2022/06/13 04:41:59;;;;;;;2.92;1.77;;;;;;;12.78;61.93;100941.91;5021563;28;20053;-44
2022/06/13 04:44:28;;;;;;;5.43;1.98;;;;;;;12.87;62.60;100955.78;5024043;28;20445;-40
2022/06/13 04:46:56;;;;;;;4.55;1.02;;;;;;;12.97;63.01;100947.16;5020959;28;20425;-43
2022/06/13 04:49:58;;;;;;;1.42;1.23;;;;;;;13.02;62.92;100945.41;5022570;28;20123;-38
2022/06/13 04:52:30;;;;;;;2.15;1.80;;;;;;;13.19;62.99;100953.25;5021181;28;20041;-41
2022/06/13 04:55:03;;;;;;;2.20;1.48;;;;;;;13.31;62.24;100935.91;5021584;28;20050;-43
2022/06/13 04:57:30;;;;;;;3.28;0.85;;;;;;;13.45;63.15;100943.69;5021242;28;20383;-43
2022/06/13 04:59:56;;;;;;;3.70;1.70;;;;;;;13.52;62.07;100950.69;5021329;28;20058;-44
2022/06/13 05:02:39;;;;;;;7.97;2.10;;;;;;;13.53;62.45;100957.59;5021361;28;20061;-42
2022/06/13 05:05:24;;;;;;;2.35;0.73;;;;;;;13.58;61.72;100961.06;5022853;28;20492;-42
2022/06/13 05:07:50;;;;;;;2.45;1.58;;;;;;;13.60;61.36;100969.75;5016577;28;20049;-42
2022/06/13 05:10:21;;;;;;;2.80;1.65;;;;;;;13.61;62.58;100966.28;5022079;28;20061;-40
2022/06/13 05:12:48;;;;;;;2.67;1.13;;;;;;;13.58;62.37;100966.28;5020673;28;20057;-43
2022/06/13 05:26:05;;;;;;;1.67;0.70;;;;;;;14.12;62.17;100982.72;5039150;28;20406;-45
2022/06/13 05:28:33;;;;;;;2.97;0.93;;;;;;;14.21;61.60;100981.78;5015109;28;20041;-41
2022/06/13 05:31:10;;;;;;;3.15;0.73;;;;;;;14.30;61.88;100981.78;5018444;28;20090;-44
2022/06/13 05:33:40;;;;;;;2.83;0.82;;;;;;;14.44;62.50;100980.84;5019755;28;20042;-41
2022/06/13 05:36:12;;;;;;;3.28;0.60;;;;;;;14.55;62.23;100980.81;5018601;28;20564;-43
2022/06/13 05:38:45;;;;;;;3.40;0.80;;;;;;;14.57;61.44;100979.94;5015634;28;20489;-44
2022/06/13 05:41:12;;;;;;;4.10;0.70;;;;;;;14.53;61.52;100984.28;5019075;28;20041;-45
2022/06/13 05:43:38;;;;;;;5.32;1.13;;;;;;;14.47;60.82;100984.31;5017860;28;20049;-41
2022/06/13 05:46:07;;;;;;;4.75;0.82;;;;;;;14.45;61.15;100990.44;5017189;28;20069;-43
2022/06/13 05:48:34;;;;;;;1.65;0.70;;;;;;;14.38;61.59;100990.44;5016964;28;20050;-43
2022/06/13 05:51:01;;;;;;;2.80;0.47;;;;;;;14.35;60.80;100995.66;5018950;28;20069;-43
2022/06/13 05:53:27;;;;;;;2.83;0.68;;;;;;;14.38;61.12;101000.84;5018200;28;20057;-42
2022/06/13 05:55:57;;;;;;;3.05;0.70;;;;;;;14.50;61.57;100999.09;5022288;28;20068;-44
2022/06/13 05:58:25;;;;;;;2.20;0.60;;;;;;;14.68;61.04;101012.91;5014741;28;21019;-43
2022/06/13 06:00:57;;;;;;;3.05;0.73;;;;;;;14.87;60.97;101009.38;5018732;28;20107;-41
2022/06/13 06:03:25;;;;;;;4.47;1.02;;;;;;;15.11;61.82;101023.16;5019036;28;20111;-43
2022/06/13 06:05:53;;;;;;;3.28;0.95;;;;;;;15.32;61.40;101018.66;5015160;28;20077;-43
2022/06/13 06:18:47;;;;;;;5.88;1.92;;;;;;;16.06;59.74;101013.72;5053299;28;20407;-48
2022/06/13 06:21:14;;;;;;;3.30;1.90;;;;;;;16.18;59.89;101018.81;5007277;28;20058;-40
2022/06/13 06:23:41;;;;;;;4.43;1.73;;;;;;;16.37;59.46;101022.97;4973866;28;20059;-46
2022/06/13 06:26:16;;;;;;;3.08;1.05;;;;;;;16.44;58.57;101029.88;4979657;28;20390;-44
2022/06/13 06:28:43;;;;;;;3.60;1.60;;;;;;;16.50;58.33;101023.72;4984061;28;20100;-48
2022/06/13 06:31:10;;;;;;;4.82;1.55;;;;;;;16.51;57.85;101025.47;4982241;28;20105;-45
2022/06/13 06:33:36;;;;;;;5.95;1.75;;;;;;;16.54;58.13;101030.63;4970780;28;20102;-43
2022/06/13 06:36:04;;;;;;;3.33;2.17;;;;;;;16.60;57.31;101025.34;4976003;28;20047;-42
2022/06/13 06:38:30;;;;;;;3.17;2.17;;;;;;;16.63;57.52;101033.16;4973934;28;20051;-43
2022/06/13 06:40:57;;;;;;;5.05;1.80;;;;;;;16.67;57.38;101032.22;4980952;28;20380;-46
2022/06/13 06:43:24;;;;;;;4.65;2.03;;;;;;;16.69;57.17;101029.59;4975422;28;20096;-41
2022/06/13 06:45:51;;;;;;;4.45;2.67;;;;;;;16.64;57.12;101037.50;4973950;28;20050;-44
2022/06/13 06:48:20;;;;;;;3.90;1.85;;;;;;;16.64;56.63;101034.88;4977637;28;20093;-44
2022/06/13 06:50:49;;;;;;;4.57;2.88;;;;;;;16.77;56.67;101037.34;4974704;28;20436;-44
2022/06/13 06:53:19;;;;;;;4.63;1.98;;;;;;;16.85;56.98;101030.25;5009665;28;20110;-42
2022/06/13 07:01:36;;;;;;;5.18;3.00;;;;;;;17.35;56.52;101034.81;4974361;28;20059;-41
2022/06/13 07:04:03;;;;;;;6.40;3.20;;;;;;;17.62;57.13;101037.88;4980174;28;20077;-42
2022/06/13 07:06:30;;;;;;;7.30;1.33;;;;;;;17.89;55.72;101045.31;4979945;28;20434;-45
2022/06/13 07:08:57;;;;;;;3.25;2.38;;;;;;;18.09;56.08;101045.00;4979982;28;20050;-48
2022/06/13 07:14:12;;;;;;;2.75;2.05;;;;;;;18.44;53.33;101037.38;4965121;28;20081;-45
2022/06/13 07:16:39;;;;;;;4.65;1.95;;;;;;;18.40;52.85;101040.94;4973148;28;20059;-44
2022/06/13 07:19:05;;;;;;;1.85;1.65;;;;;;;18.42;53.28;101045.25;4975288;28;20101;-44
2022/06/13 07:21:32;;;;;;;4.00;2.47;;;;;;;18.57;52.82;101048.44;4972544;28;20147;-43
2022/06/13 07:24:00;;;;;;;5.95;2.28;;;;;;;18.60;52.36;101048.38;4974261;28;20043;-44
2022/06/13 07:26:26;;;;;;;5.18;2.45;;;;;;;18.68;52.63;101051.72;4973828;28;20047;-45
2022/06/13 07:28:55;;;;;;;1.58;1.13;;;;;;;18.91;52.25;101053.00;4972909;28;20424;-41
2022/06/13 07:31:31;;;;;;;2.67;1.75;;;;;;;19.15;51.61;101056.00;4971958;28;20043;-45
2022/06/13 07:33:57;;;;;;;1.98;1.63;;;;;;;19.38;51.14;101060.75;4966139;28;20055;-40
2022/06/13 07:36:24;;;;;;;3.13;1.60;;;;;;;19.44;51.32;101061.47;4974623;28;20046;-47
2022/06/13 07:38:52;;;;;;;2.72;1.70;;;;;;;19.39;50.43;101059.81;4967786;28;20054;-44
2022/06/13 07:41:21;;;;;;;5.93;2.28;;;;;;;19.44;50.40;101051.84;4965838;28;20071;-43
2022/06/13 07:43:50;;;;;;;3.90;2.47;;;;;;;19.56;50.47;101055.09;4966890;28;20047;-43
2022/06/13 07:46:35;;;;;;;4.68;2.45;;;;;;;19.81;50.19;101050.06;4967091;28;20058;-46
2022/06/13 07:49:03;;;;;;;4.72;2.25;;;;;;;20.06;49.55;101048.63;4970542;28;20046;-42
2022/06/13 07:51:29;;;;;;;4.20;2.10;;;;;;;20.28;48.61;101047.13;4967753;28;20070;-41
2022/06/13 07:53:59;;;;;;;5.38;2.33;;;;;;;20.49;48.25;101047.44;4968305;28;20078;-43
2022/06/13 07:56:29;;;;;;;3.50;2.08;;;;;;;20.55;47.53;101047.25;4975843;28;20044;-44
2022/06/13 07:58:58;;;;;;;6.40;2.20;;;;;;;20.43;47.75;101058.13;4970991;28;20541;-46
2022/06/13 08:01:26;;;;;;;4.15;2.38;;;;;;;20.22;47.35;101060.44;4973604;28;20090;-45
2022/06/13 08:03:54;;;;;;;3.10;2.20;;;;;;;20.01;47.70;101062.75;4968656;28;20146;-42
2022/06/13 08:06:23;;;;;;;5.30;1.80;;;;;;;19.81;47.46;101065.84;4965918;28;20054;-45
2022/06/13 08:08:50;;;;;;;3.80;1.17;;;;;;;19.58;47.56;101069.03;4969910;28;20430;-41
2022/06/13 08:11:27;;;;;;;3.63;1.70;;;;;;;19.39;47.80;101069.50;4962506;28;20062;-43
2022/06/13 08:13:54;;;;;;;3.58;2.25;;;;;;;19.24;48.61;101076.81;4967169;28;20523;-46
2022/06/13 08:16:21;;;;;;;3.90;1.73;;;;;;;19.12;49.29;101080.56;4972713;28;20102;-44
2022/06/13 08:18:47;;;;;;;7.00;2.83;;;;;;;19.05;49.31;101078.09;4972285;28;20081;-44
2022/06/13 08:21:16;;;;;;;2.90;2.17;;;;;;;18.99;49.62;101093.06;4966380;28;20699;-42
2022/06/13 08:23:43;;;;;;;3.42;2.40;;;;;;;18.89;49.05;101086.31;4965833;28;20046;-45
2022/06/13 08:26:11;;;;;;;5.25;2.47;;;;;;;18.83;49.73;101092.53;4969390;28;20422;-41
2022/06/13 08:28:37;;;;;;;4.03;1.85;;;;;;;18.84;49.84;101088.13;4998932;28;20187;-43
2022/06/13 08:31:09;;;;;;;3.72;2.88;;;;;;;18.83;49.55;101089.91;4969379;28;20050;-45
2022/06/13 08:33:37;;;;;;;5.03;3.13;;;;;;;18.89;50.28;101088.94;4967074;28;20065;-45
2022/06/13 08:36:05;;;;;;;2.63;1.20;;;;;;;18.93;49.75;101095.84;4967789;28;20307;-45
2022/06/13 08:38:32;;;;;;;3.85;2.33;;;;;;;18.95;50.30;101095.81;4972832;28;20042;-43
2022/06/13 08:41:39;;;;;;;3.80;1.98;;;;;;;18.87;50.37;101094.19;4967302;28;20050;-46
2022/06/13 10:06:04;;;;;;;3.28;1.58;;;;;;;21.13;45.43;101118.47;5042925;27;20402;-45
2022/06/13 10:19:44;;;;;;;3.95;1.80;;;;;;;21.25;45.06;101118.13;5052148;27;20723;-45
2022/06/13 10:22:16;;;;;;;4.85;2.97;;;;;;;21.20;44.78;101117.38;5009782;28;20061;-43
2022/06/13 10:30:12;;;;;;;3.40;1.70;;;;;;;20.90;44.61;101117.38;5025533;28;20413;-43
2022/06/13 10:33:06;;;;;;;4.55;2.13;;;;;;;20.90;45.00;101120.00;5019878;28;20129;-43
2022/06/13 10:46:00;;;;;;;4.20;2.10;;;;;;;20.90;43.74;101110.34;5058665;27;20389;-47
2022/06/13 10:48:37;;;;;;;4.85;2.08;;;;;;;20.80;44.41;101117.63;5018647;28;20045;-43
2022/06/13 10:51:05;;;;;;;3.80;1.90;;;;;;;20.81;44.87;101121.97;5022150;28;20104;-43
2022/06/13 10:53:43;;;;;;;3.33;1.80;;;;;;;20.85;44.93;101122.75;5023198;28;20490;-43
2022/06/13 10:56:16;;;;;;;4.22;2.13;;;;;;;20.78;44.85;101114.16;5025799;28;20545;-44
2022/06/13 10:58:48;;;;;;;5.07;1.88;;;;;;;20.72;44.87;101122.25;5025065;28;20115;-43
2022/06/13 11:01:19;;;;;;;5.60;2.38;;;;;;;20.65;45.46;101118.91;5020752;28;20056;-47
2022/06/13 11:04:16;;;;;;;5.82;2.08;;;;;;;20.60;45.28;101117.31;5023519;28;20486;-45
2022/06/13 11:06:47;;;;;;;5.22;1.80;;;;;;;20.64;45.08;101118.97;5022383;28;20457;-44
2022/06/13 11:09:38;;;;;;;5.45;2.00;;;;;;;20.60;45.44;101107.63;5022795;28;20056;-43
2022/06/13 11:12:26;;;;;;;4.20;1.63;;;;;;;20.68;45.45;101115.34;5020375;28;20042;-44
2022/06/13 11:23:10;;;;;;;3.22;1.52;;;;;;;20.67;44.55;101118.88;5014521;28;20107;-45
2022/06/13 11:25:37;;;;;;;3.78;1.42;;;;;;;20.65;44.92;101113.66;5013303;28;20100;-43
2022/06/13 11:30:45;;;;;;;5.70;2.15;;;;;;;20.64;45.38;101113.69;5081382;27;20416;-43
2022/06/13 11:36:01;;;;;;;2.97;2.20;;;;;;;20.78;45.75;101116.78;5056929;27;20975;-41
2022/06/13 11:51:41;;;;;;;3.83;1.15;;;;;;;21.32;44.13;101101.19;5050788;28;20415;-41
2022/06/13 11:54:21;;;;;;;6.03;1.58;;;;;;;21.34;44.16;101103.78;5028887;28;20665;-44
2022/06/13 11:56:48;;;;;;;1.83;1.52;;;;;;;21.42;44.12;101101.75;5028980;28;20439;-45
2022/06/13 11:59:18;;;;;;;3.17;0.95;;;;;;;21.45;44.47;101106.09;5032407;28;20049;-45
2022/06/13 12:01:45;;;;;;;4.35;1.17;;;;;;;21.53;44.71;101101.44;5027067;28;20049;-45
2022/06/13 12:12:07;;;;;;;2.67;2.03;;;;;;;21.88;44.00;101097.72;5008700;28;20413;-43
2022/06/13 12:14:41;;;;;;;3.63;2.75;;;;;;;21.96;42.70;101100.97;5003519;28;20074;-43
2022/06/13 12:17:32;;;;;;;3.15;2.38;;;;;;;21.96;43.53;101093.06;5001708;28;20050;-41
2022/06/13 12:22:53;;;;;;;6.63;2.38;;;;;;;22.47;42.85;101101.81;5059756;27;20407;-41
2022/06/13 12:25:50;;;;;;;4.82;1.40;;;;;;;22.51;42.10;101086.72;5037102;28;20067;-43
2022/06/13 12:28:21;;;;;;;5.43;1.65;;;;;;;22.54;42.48;101091.03;5038543;28;20052;-43
2022/06/13 12:31:13;;;;;;;16.27;2.38;;;;;;;22.65;42.22;101095.94;5043524;28;20071;-42
2022/06/13 12:39:08;;;;;;;1.88;1.35;;;;;;;22.87;41.95;101076.66;5068084;27;20411;-43
2022/06/13 13:11:36;;;;;;;3.33;2.45;;;;;;;22.95;40.46;101069.31;5040739;27;20399;-46
2022/06/13 13:25:24;;;;;;;3.75;2.28;;;;;;;22.58;41.30;101061.88;5058090;27;20400;-47
2022/06/13 13:30:33;;;;;;;2.88;1.67;;;;;;;23.17;39.84;101064.03;5017565;28;20410;-49
2022/06/13 13:38:23;;;;;;;3.28;1.10;;;;;;;23.00;40.42;101066.50;5040879;27;20537;-47
2022/06/13 13:41:15;;;;;;;2.33;1.60;;;;;;;23.09;40.74;101061.72;5015729;28;20112;-46
2022/06/13 13:46:45;;;;;;;3.47;2.25;;;;;;;23.26;40.15;101057.53;5088090;27;20401;-50
2022/06/13 13:49:19;;;;;;;4.93;3.05;;;;;;;23.18;39.66;101059.63;5048943;28;20110;-49
2022/06/13 13:51:55;;;;;;;2.88;2.30;;;;;;;23.05;39.99;101060.09;5080297;28;20048;-45
2022/06/13 13:54:27;;;;;;;3.63;2.58;;;;;;;22.92;40.61;101058.84;5081912;28;20048;-45
2022/06/13 13:57:04;;;;;;;3.03;2.65;;;;;;;22.84;40.41;101061.81;5076925;28;20048;-48
2022/06/13 13:59:38;;;;;;;4.68;2.72;;;;;;;22.77;40.13;101063.81;5078663;28;20044;-50
2022/06/13 14:09:59;;;;;;;2.50;1.05;;;;;;;22.52;40.15;101048.84;5082593;27;20406;-44
2022/06/13 14:12:26;;;;;;;2.58;1.30;;;;;;;22.47;40.80;101048.19;5022689;28;20096;-48
2022/06/13 14:17:48;;;;;;;3.17;1.48;;;;;;;22.42;41.68;101055.38;5015038;27;20419;-50
2022/06/13 14:20:24;;;;;;;5.18;1.67;;;;;;;22.39;40.95;101039.69;4995216;28;20109;-46
2022/06/13 14:22:57;;;;;;;1.75;1.40;;;;;;;22.38;41.46;101035.28;4961919;28;20505;-50
2022/06/13 14:25:35;;;;;;;3.80;1.50;;;;;;;22.36;41.31;101037.16;4996143;28;20050;-47
2022/06/13 14:28:06;;;;;;;3.00;2.03;;;;;;;22.42;41.33;101035.13;4991818;28;20419;-51
2022/06/13 14:31:03;;;;;;;2.72;1.40;;;;;;;22.56;41.42;101037.28;4967742;28;20051;-49
2022/06/13 15:21:04;;;;;;;4.10;3.05;;;;;;;23.05;41.05;101004.63;5004639;27;20411;-50
2022/06/13 15:23:54;;;;;;;4.82;3.00;;;;;;;23.02;40.72;101001.22;4991550;28;20050;-46
2022/06/13 15:31:38;;;;;;;3.83;1.60;;;;;;;22.94;41.53;101001.56;5037630;28;20421;-44
2022/06/13 15:34:25;;;;;;;4.78;1.48;;;;;;;22.94;41.06;101005.06;5023819;28;20049;-47
2022/06/13 15:36:56;;;;;;;6.68;1.92;;;;;;;22.86;40.60;100996.56;5015669;28;20486;-45
2022/06/13 15:39:24;;;;;;;4.32;1.95;;;;;;;22.78;40.10;100996.88;5016825;28;20050;-49
2022/06/13 15:41:55;;;;;;;4.53;1.63;;;;;;;22.73;40.48;101001.50;5012172;28;20561;-47
2022/06/13 15:44:25;;;;;;;2.92;1.73;;;;;;;22.65;40.86;100990.34;5020947;28;20468;-50
2022/06/13 15:46:59;;;;;;;4.63;1.90;;;;;;;22.56;40.80;100984.50;5015580;28;20042;-50
2022/06/13 15:49:37;;;;;;;4.38;1.70;;;;;;;22.55;41.64;100998.59;5015992;28;20053;-46
2022/06/13 15:52:09;;;;;;;6.22;2.45;;;;;;;22.55;41.11;100981.88;5015442;28;20053;-50
2022/06/13 15:54:40;;;;;;;6.72;1.95;;;;;;;22.56;41.07;100987.13;5015713;28;20041;-51
2022/06/13 15:57:10;;;;;;;3.25;2.05;;;;;;;22.54;41.33;100986.31;5023450;28;20068;-45
2022/06/13 15:59:58;;;;;;;4.70;1.70;;;;;;;22.47;41.27;100982.19;5014572;28;20042;-46
2022/06/13 16:02:45;;;;;;;2.88;1.83;;;;;;;22.55;41.33;100982.75;5030929;28;20067;-45
2022/06/13 16:05:17;;;;;;;6.90;2.13;;;;;;;22.70;41.27;100980.47;5014019;28;20041;-45
2022/06/13 16:07:54;;;;;;;8.23;1.80;;;;;;;22.76;41.14;100980.22;5017079;28;20042;-46
2022/06/13 16:10:25;;;;;;;4.07;2.08;;;;;;;22.87;41.28;100971.03;5013857;28;20050;-43
2022/06/13 16:12:55;;;;;;;4.95;1.92;;;;;;;22.88;40.71;100972.72;5016554;28;20100;-47
2022/06/13 16:15:24;;;;;;;6.20;2.95;;;;;;;22.84;40.84;100972.84;5020238;28;20041;-50
2022/06/13 16:17:58;;;;;;;5.70;1.70;;;;;;;22.88;41.31;100972.72;5008763;28;20061;-44
2022/06/13 16:20:30;;;;;;;4.50;2.25;;;;;;;22.92;41.08;100969.03;4997495;28;20053;-46
2022/06/13 16:23:02;;;;;;;6.25;2.17;;;;;;;22.95;40.80;100961.00;4999310;28;20054;-46
2022/06/13 16:25:30;;;;;;;4.10;2.15;;;;;;;23.06;40.56;100956.16;4996548;28;20054;-47
2022/06/13 16:27:58;;;;;;;7.72;2.70;;;;;;;23.14;40.41;100961.13;5003940;28;20050;-43
2022/06/13 16:30:33;;;;;;;5.78;2.25;;;;;;;23.09;40.50;100953.38;5003680;28;20054;-49
2022/06/13 16:33:00;;;;;;;5.30;2.28;;;;;;;23.09;40.45;100950.75;5003213;28;20054;-47
2022/06/13 16:35:49;;;;;;;4.60;2.42;;;;;;;23.00;40.89;100950.25;5003187;28;20061;-48
2022/06/13 16:38:16;;;;;;;4.75;1.88;;;;;;;23.03;41.20;100953.63;4997971;28;20046;-50
2022/06/13 16:40:50;;;;;;;8.02;2.28;;;;;;;23.06;41.32;100945.59;5008925;28;20052;-51
2022/06/13 16:43:24;;;;;;;6.43;1.90;;;;;;;23.06;40.69;100940.28;5007285;28;20053;-48
2022/06/13 16:46:11;;;;;;;5.72;2.15;;;;;;;22.98;40.70;100945.03;4996996;28;20050;-46
2022/06/13 16:48:50;;;;;;;3.70;2.13;;;;;;;22.94;40.58;100946.09;4993998;28;20091;-51
2022/06/13 16:51:32;;;;;;;6.35;2.35;;;;;;;22.90;40.19;100944.50;4991209;28;20743;-45
2022/06/13 16:54:02;;;;;;;3.25;2.17;;;;;;;22.88;40.52;100935.75;4999179;28;20054;-49
2022/06/13 16:56:37;;;;;;;4.18;2.55;;;;;;;22.78;40.30;100933.50;4987377;28;20571;-46
2022/06/13 16:59:06;;;;;;;3.97;2.72;;;;;;;22.72;40.52;100931.09;4995499;28;20057;-44
2022/06/13 17:01:44;;;;;;;3.58;2.25;;;;;;;22.58;39.97;100935.16;4998810;28;20457;-46
2022/06/13 17:04:11;;;;;;;3.50;1.90;;;;;;;22.53;39.56;100931.78;4990787;28;20145;-44
2022/06/13 17:09:22;;;;;;;4.90;3.50;;;;;;;22.36;39.91;100927.19;5056039;28;20391;-45
2022/06/13 17:17:07;;;;;;;5.97;3.17;;;;;;;22.69;40.11;100931.22;5031948;27;20411;-43
2022/06/13 17:19:37;;;;;;;5.57;3.58;;;;;;;22.43;40.65;100925.16;5001060;28;20049;-45
2022/06/13 17:22:04;;;;;;;;;;;;;;;22.22;41.20;100925.03;5002025;28;20058;-43
2022/06/13 17:24:34;;;;;;;4.35;3.10;;;;;;;22.40;40.81;100927.91;4999591;28;20370;-47
2022/06/13 17:32:34;;;;;;;6.97;3.97;;;;;;;22.32;41.26;100926.44;4986814;28;20046;-43
2022/06/13 17:35:00;;;;;;;5.82;3.35;;;;;;;22.25;40.86;100927.56;4996839;28;20116;-49
2022/06/13 17:37:29;;;;;;;8.23;3.72;;;;;;;22.21;40.88;100923.34;4986572;28;20052;-48
2022/06/13 17:39:56;;;;;;;5.10;3.35;;;;;;;22.12;40.47;100921.06;4983127;28;20510;-44
2022/06/13 17:42:24;;;;;;;5.47;2.42;;;;;;;22.04;41.18;100924.84;4985310;28;20384;-52
2022/06/13 17:45:02;;;;;;;5.05;3.85;;;;;;;22.00;41.02;100923.22;4987980;28;20375;-48
2022/06/13 17:47:30;;;;;;;4.57;3.58;;;;;;;21.96;41.39;100921.63;4984496;28;20050;-45
2022/06/13 17:49:57;;;;;;;4.55;3.72;;;;;;;21.90;41.33;100921.84;4993402;28;20062;-45
2022/06/13 17:52:24;;;;;;;7.63;4.30;;;;;;;21.79;41.20;100920.44;4989892;28;20046;-47
2022/06/13 17:54:50;;;;;;;6.90;4.72;;;;;;;21.75;41.55;100913.56;4997057;28;20054;-43
2022/06/13 17:57:19;;;;;;;5.35;3.45;;;;;;;21.74;41.25;100911.84;4991945;28;20050;-51
2022/06/13 17:59:48;;;;;;;5.72;3.72;;;;;;;21.71;41.35;100911.91;4983605;28;20062;-46
2022/06/13 18:02:16;;;;;;;5.15;3.83;;;;;;;21.69;41.66;100908.50;4979038;28;20086;-45
2022/06/13 18:04:46;;;;;;;7.00;3.78;;;;;;;21.72;41.75;100916.28;4982985;28;20046;-50
2022/06/13 18:07:14;;;;;;;5.15;4.10;;;;;;;21.73;41.97;100910.09;4987009;28;20061;-51